Time;durP1;ratioP1;P1;durP2;ratioP2;P2;SDS_P1;SDS_P2;PMS_P1;PMS_P2;Temp;Humidity;BMP_temperature;BMP_pressure;BME280_temperature;BME280_humidity;BME280_pressure;Samples;Min_cycle;Max_cycle;Signal;HPM_P1;HPM_P2
2023/04/09 00:00:33;;;;;;;10.50;8.00;;;;;;;8.92;97.48;101408.30;105319;1254;99100;-76
2023/04/09 00:03:32;;;;;;;9.90;7.70;;;;;;;8.91;97.53;101406.41;105257;1254;97971;-75
2023/04/09 00:06:17;;;;;;;9.80;7.80;;;;;;;8.90;97.46;101403.98;105554;1260;97975;-79
2023/04/09 00:09:03;;;;;;;11.50;7.50;;;;;;;8.89;97.29;101397.77;105484;1257;98426;-77
2023/04/09 00:11:48;;;;;;;12.90;9.10;;;;;;;8.89;97.74;101397.58;105643;1259;103111;-78
2023/04/09 00:14:34;;;;;;;18.80;13.70;;;;;;;8.89;97.78;101395.23;105559;1260;99062;-81
2023/04/09 00:17:20;;;;;;;12.70;10.30;;;;;;;8.89;97.81;101399.16;105726;1254;106348;-78
2023/04/09 00:20:06;;;;;;;13.40;10.20;;;;;;;8.87;97.79;101397.92;105561;1255;98051;-77
2023/04/09 00:22:52;;;;;;;9.60;8.30;;;;;;;8.86;97.89;101395.68;105540;1260;98416;-75
2023/04/09 00:25:38;;;;;;;12.00;9.70;;;;;;;8.86;97.99;101393.27;105722;1258;101379;-77
2023/04/09 00:28:23;;;;;;;11.20;9.00;;;;;;;8.87;98.04;101390.50;105620;1260;99756;-76
2023/04/09 00:31:09;;;;;;;12.00;10.30;;;;;;;8.86;98.02;101388.56;105468;1256;98039;-76
2023/04/09 00:33:55;;;;;;;13.40;11.60;;;;;;;8.86;98.14;101390.60;105482;1257;97993;-78
2023/04/09 00:36:40;;;;;;;14.40;10.60;;;;;;;8.86;97.99;101388.30;105716;1256;98597;-76
2023/04/09 00:39:26;;;;;;;12.80;8.80;;;;;;;8.87;97.92;101389.59;105680;1260;101424;-80
2023/04/09 00:42:12;;;;;;;11.40;7.70;;;;;;;8.86;97.85;101391.59;105505;1260;99078;-75
2023/04/09 00:44:58;;;;;;;8.70;6.90;;;;;;;8.83;97.98;101395.89;105527;1260;98257;-77
2023/04/09 00:47:45;;;;;;;11.40;8.40;;;;;;;8.78;98.22;101397.11;105804;1260;97887;-76
2023/04/09 00:50:30;;;;;;;10.30;8.30;;;;;;;8.77;98.44;101398.08;105258;1260;97927;-78
2023/04/09 00:53:16;;;;;;;10.40;8.30;;;;;;;8.77;98.13;101394.38;105255;1258;102674;-78
2023/04/09 00:56:03;;;;;;;12.30;8.10;;;;;;;8.77;98.44;101394.48;105607;1256;99641;-77
2023/04/09 00:58:49;;;;;;;10.10;8.20;;;;;;;8.78;98.52;101394.21;105556;1260;97881;-78
2023/04/09 01:01:35;;;;;;;13.50;9.00;;;;;;;8.78;98.47;101393.68;105724;1257;99110;-78
2023/04/09 01:04:21;;;;;;;9.50;7.50;;;;;;;8.79;98.53;101392.55;105599;1260;97963;-79
2023/04/09 01:07:17;;;;;;;10.60;7.90;;;;;;;8.78;98.38;101389.95;105685;1256;102293;-79
2023/04/09 01:10:21;;;;;;;12.30;9.10;;;;;;;8.76;98.33;101389.86;105527;1259;101203;-75
2023/04/09 01:13:15;;;;;;;14.40;9.40;;;;;;;8.73;98.44;101387.80;105573;1259;97970;-78
2023/04/09 01:16:02;;;;;;;12.20;8.00;;;;;;;8.71;98.36;101386.92;105595;1256;97974;-78
2023/04/09 01:18:57;;;;;;;12.50;8.20;;;;;;;8.71;98.28;101382.65;105593;1259;98482;-78
2023/04/09 01:21:44;;;;;;;12.60;9.20;;;;;;;8.72;98.36;101382.76;105590;1260;101336;-79
2023/04/09 01:24:46;;;;;;;15.40;10.20;;;;;;;8.72;98.23;101380.39;105622;1256;99090;-79
2023/04/09 01:27:53;;;;;;;16.30;10.70;;;;;;;8.72;98.26;101376.34;105649;1258;98318;-79
2023/04/09 01:30:42;;;;;;;15.60;11.30;;;;;;;8.71;98.07;101375.73;106606;1255;98723;-80
2023/04/09 01:33:30;;;;;;;14.30;10.40;;;;;;;8.71;98.15;101376.11;105262;1260;98473;-78
2023/04/09 01:36:16;;;;;;;15.50;11.20;;;;;;;8.71;98.16;101380.40;105283;1260;102094;-76
2023/04/09 01:39:02;;;;;;;14.00;10.20;;;;;;;8.70;98.18;101379.04;105272;1260;99850;-76
2023/04/09 01:41:50;;;;;;;12.30;10.00;;;;;;;8.70;98.06;101378.86;105593;1259;98907;-76
2023/04/09 01:44:40;;;;;;;14.10;9.70;;;;;;;8.70;98.15;101386.20;105414;1255;97923;-78
2023/04/09 01:47:26;;;;;;;13.30;9.80;;;;;;;8.69;98.25;101385.17;105348;1256;98042;-80
2023/04/09 01:50:12;;;;;;;12.90;8.70;;;;;;;8.68;98.31;101384.42;105236;1257;101340;-78
2023/04/09 01:52:58;;;;;;;13.80;10.20;;;;;;;8.67;98.38;101382.04;105258;1256;99115;-78
2023/04/09 01:55:45;;;;;;;20.60;14.40;;;;;;;8.67;98.32;101380.96;105191;1258;98483;-77
2023/04/09 01:58:32;;;;;;;18.30;12.40;;;;;;;8.66;98.36;101383.88;105243;1255;98004;-77
2023/04/09 02:01:31;;;;;;;14.90;11.20;;;;;;;8.66;98.21;101390.37;105481;1258;98504;-79
2023/04/09 02:04:30;;;;;;;15.50;10.40;;;;;;;8.65;98.14;101391.98;105439;1256;101341;-77
2023/04/09 02:07:30;;;;;;;13.70;10.50;;;;;;;8.64;98.17;101394.05;105316;1255;99648;-76
2023/04/09 02:10:19;;;;;;;15.10;10.70;;;;;;;8.64;98.30;101389.97;105164;1261;99603;-75
2023/04/09 02:13:08;;;;;;;16.40;11.20;;;;;;;8.63;98.12;101393.47;105212;1255;98367;-76
2023/04/09 02:15:55;;;;;;;15.20;10.50;;;;;;;8.62;98.11;101386.31;105196;1255;98065;-77
2023/04/09 02:18:41;;;;;;;15.40;11.00;;;;;;;8.60;98.04;101387.26;105269;1260;101366;-78
2023/04/09 02:21:27;;;;;;;17.10;11.70;;;;;;;8.55;98.03;101389.14;105334;1255;100095;-76
2023/04/09 02:24:13;;;;;;;15.50;12.20;;;;;;;8.52;98.30;101390.95;105204;1256;97998;-76
2023/04/09 02:26:59;;;;;;;16.10;12.80;;;;;;;8.53;98.33;101393.92;105215;1258;99148;-76
2023/04/09 02:29:45;;;;;;;16.50;12.10;;;;;;;8.53;98.50;101396.92;105284;1256;98540;-77
2023/04/09 02:32:31;;;;;;;16.30;12.20;;;;;;;8.53;98.35;101400.67;105289;1260;102956;-77
2023/04/09 02:35:16;;;;;;;17.60;12.50;;;;;;;8.54;98.62;101399.66;105196;1256;99124;-78
2023/04/09 02:38:02;;;;;;;15.30;11.30;;;;;;;8.55;98.55;101404.45;105219;1260;98809;-77
2023/04/09 02:40:47;;;;;;;13.00;10.10;;;;;;;8.54;98.47;101406.61;105703;1254;97967;-79
2023/04/09 02:43:33;;;;;;;13.00;8.70;;;;;;;8.54;98.73;101410.77;105602;1255;97890;-79
2023/04/09 02:46:19;;;;;;;12.30;9.10;;;;;;;8.53;98.81;101409.05;105573;1255;101356;-77
2023/04/09 02:49:05;;;;;;;14.40;8.70;;;;;;;8.53;98.65;101410.54;105411;1257;99095;-75
2023/04/09 02:51:50;;;;;;;13.40;9.70;;;;;;;8.52;98.66;101413.06;105230;1260;98188;-76
2023/04/09 02:54:36;;;;;;;13.40;9.40;;;;;;;8.52;98.80;101416.84;105424;1258;97968;-78
2023/04/09 02:57:21;;;;;;;15.50;10.10;;;;;;;8.52;98.96;101417.90;105529;1255;98506;-75
2023/04/09 03:00:08;;;;;;;14.40;10.30;;;;;;;8.51;98.90;101418.17;105233;1255;101369;-78
2023/04/09 03:02:53;;;;;;;15.10;10.70;;;;;;;8.50;98.99;101417.02;105199;1256;99134;-79
2023/04/09 03:05:39;;;;;;;16.20;11.10;;;;;;;8.48;99.28;101409.92;105223;1260;98145;-77
2023/04/09 03:08:24;;;;;;;16.20;11.40;;;;;;;8.46;99.40;101410.81;105207;1260;97945;-77
2023/04/09 03:11:09;;;;;;;13.60;10.50;;;;;;;8.47;99.58;101411.85;105179;1260;98032;-77
2023/04/09 03:13:55;;;;;;;15.30;11.20;;;;;;;8.46;99.51;101406.73;105183;1257;102589;-76
2023/04/09 03:16:40;;;;;;;15.80;11.60;;;;;;;8.45;99.64;101403.80;105297;1258;100004;-76
2023/04/09 03:19:26;;;;;;;16.30;10.60;;;;;;;8.45;99.61;101405.40;105225;1260;98572;-77
2023/04/09 03:22:11;;;;;;;17.70;12.10;;;;;;;8.46;99.62;101399.83;105277;1261;98049;-76
2023/04/09 03:24:57;;;;;;;17.00;11.70;;;;;;;8.45;99.59;101396.50;105196;1258;98999;-77
2023/04/09 03:27:42;;;;;;;18.30;12.50;;;;;;;8.45;99.72;101395.45;105285;1265;102737;-75
2023/04/09 03:30:29;;;;;;;22.80;13.40;;;;;;;8.45;99.78;101393.48;105567;1260;100823;-78
2023/04/09 03:33:15;;;;;;;26.00;16.20;;;;;;;8.44;99.80;101395.02;105264;1260;97974;-78
2023/04/09 03:36:13;;;;;;;25.80;18.10;;;;;;;8.44;99.84;101391.84;105309;1255;97987;-75
2023/04/09 03:39:10;;;;;;;23.40;16.10;;;;;;;8.43;99.93;101389.83;105562;1258;98463;-76
2023/04/09 03:42:00;;;;;;;23.10;16.00;;;;;;;8.43;99.89;101391.27;105721;1256;103566;-76
2023/04/09 03:44:48;;;;;;;22.00;15.50;;;;;;;8.42;99.93;101393.33;105443;1255;99074;-77
2023/04/09 03:47:41;;;;;;;22.40;15.80;;;;;;;8.41;99.87;101393.91;105299;1261;99269;-77
2023/04/09 03:50:27;;;;;;;21.20;14.40;;;;;;;8.39;99.94;101393.73;105304;1258;99164;-78
2023/04/09 03:53:13;;;;;;;23.00;15.80;;;;;;;8.39;99.98;101393.23;105251;1254;98136;-75
2023/04/09 03:56:01;;;;;;;23.90;15.40;;;;;;;8.38;99.78;101394.92;105163;1261;101319;-76
2023/04/09 03:58:48;;;;;;;18.50;13.00;;;;;;;8.37;99.90;101394.88;105368;1260;99712;-77
2023/04/09 04:01:35;;;;;;;18.40;13.30;;;;;;;8.36;99.97;101395.84;105271;1256;98047;-77
2023/04/09 04:04:20;;;;;;;19.00;12.60;;;;;;;8.35;100.00;101395.30;105229;1261;97952;-78
2023/04/09 04:07:11;;;;;;;19.60;13.50;;;;;;;8.32;99.94;101401.05;105340;1255;97965;-77
2023/04/09 04:10:06;;;;;;;17.90;12.70;;;;;;;8.30;99.96;101391.85;105367;1255;102608;-78
2023/04/09 04:12:52;;;;;;;20.40;13.80;;;;;;;8.28;99.98;101386.36;105290;1261;99113;-76
2023/04/09 04:15:45;;;;;;;17.60;12.20;;;;;;;8.27;100.00;101390.02;105330;1256;99152;-78
2023/04/09 04:18:32;;;;;;;19.80;12.90;;;;;;;8.27;99.95;101386.64;105359;1256;98057;-78
2023/04/09 04:21:18;;;;;;;20.20;13.50;;;;;;;8.28;99.98;101388.48;105220;1261;98482;-76
2023/04/09 04:24:06;;;;;;;22.20;13.70;;;;;;;8.28;99.92;101391.27;105167;1255;102953;-76
2023/04/09 04:26:51;;;;;;;21.70;14.70;;;;;;;8.29;99.97;101389.48;105286;1256;100196;-77
2023/04/09 04:29:38;;;;;;;21.00;14.50;;;;;;;8.27;100.00;101389.59;105323;1258;97882;-76
2023/04/09 04:32:33;;;;;;;21.80;15.30;;;;;;;8.28;100.00;101384.79;105319;1258;99431;-75
2023/04/09 04:35:21;;;;;;;24.10;15.40;;;;;;;8.28;100.00;101382.59;105261;1255;98194;-75
2023/04/09 04:38:08;;;;;;;24.10;17.10;;;;;;;8.30;100.00;101381.16;105319;1256;101441;-77
2023/04/09 04:40:55;;;;;;;25.50;17.50;;;;;;;8.32;100.00;101383.41;105249;1255;100317;-76
2023/04/09 04:43:41;;;;;;;24.50;17.20;;;;;;;8.35;100.00;101382.82;105268;1255;98699;-75
2023/04/09 04:46:29;;;;;;;24.90;17.20;;;;;;;8.35;100.00;101382.79;105276;1276;98054;-77
2023/04/09 04:49:14;;;;;;;26.80;17.90;;;;;;;8.35;100.00;101385.63;105301;1258;98055;-74
2023/04/09 04:52:05;;;;;;;24.90;16.40;;;;;;;8.33;100.00;101385.27;105216;1255;102006;-76
2023/04/09 04:54:51;;;;;;;20.40;15.00;;;;;;;8.31;100.00;101388.00;105334;1256;100573;-78
2023/04/09 04:57:40;;;;;;;20.40;14.30;;;;;;;8.30;100.00;101388.66;105323;1259;98141;-77
2023/04/09 05:00:27;;;;;;;21.80;14.30;;;;;;;8.30;100.00;101384.89;105193;1261;98059;-79
2023/04/09 05:03:14;;;;;;;23.20;15.40;;;;;;;8.29;100.00;101384.12;105222;1260;98414;-76
2023/04/09 05:06:15;;;;;;;;;;;;;;;8.27;100.00;101383.77;105914;1261;101317;-79
2023/04/09 05:09:02;;;;;;;17.90;12.30;;;;;;;8.24;100.00;101390.49;105708;1254;100645;-76
2023/04/09 05:11:56;;;;;;;18.90;13.00;;;;;;;8.23;100.00;101390.88;105393;1261;97818;-75
2023/04/09 05:14:43;;;;;;;17.20;12.40;;;;;;;8.23;100.00;101394.45;105209;1255;98605;-78
2023/04/09 05:17:28;;;;;;;18.10;12.50;;;;;;;8.25;100.00;101399.48;105354;1258;98453;-78
2023/04/09 05:20:14;;;;;;;20.90;14.00;;;;;;;8.27;100.00;101400.73;105148;1258;102599;-78
2023/04/09 05:23:12;;;;;;;20.40;14.20;;;;;;;8.28;100.00;101400.35;105369;1258;99090;-77
2023/04/09 05:26:04;;;;;;;24.20;16.80;;;;;;;8.32;100.00;101397.70;105355;1261;98006;-77
2023/04/09 05:29:01;;;;;;;24.20;17.50;;;;;;;8.34;100.00;101399.45;105310;1260;97914;-75
2023/04/09 05:31:47;;;;;;;30.00;20.80;;;;;;;8.36;100.00;101404.35;105340;1256;97895;-77
2023/04/09 05:34:41;;;;;;;48.60;39.10;;;;;;;8.40;100.00;101407.55;105306;1258;102086;-75
2023/04/09 05:37:27;;;;;;;54.10;44.50;;;;;;;8.42;100.00;101409.23;105207;1262;100037;-74
2023/04/09 05:40:13;;;;;;;47.50;34.90;;;;;;;8.47;100.00;101413.78;105163;1260;97948;-76
2023/04/09 05:43:00;;;;;;;35.70;25.40;;;;;;;8.52;100.00;101415.25;105366;1259;98082;-79
2023/04/09 05:45:58;;;;;;;34.60;22.30;;;;;;;8.57;100.00;101421.99;105319;1261;97963;-75
2023/04/09 05:48:44;;;;;;;31.70;21.40;;;;;;;8.63;100.00;101422.01;105318;1257;102568;-75
2023/04/09 05:51:31;;;;;;;30.40;20.50;;;;;;;8.68;100.00;101421.64;105316;1258;100318;-78
2023/04/09 05:54:20;;;;;;;36.80;23.80;;;;;;;8.73;100.00;101421.88;105310;1267;100038;-76
2023/04/09 05:57:06;;;;;;;37.50;25.90;;;;;;;8.76;100.00;101420.25;105147;1256;97968;-78
2023/04/09 05:59:53;;;;;;;35.20;24.20;;;;;;;8.80;100.00;101424.82;105289;1258;97866;-76
2023/04/09 06:02:40;;;;;;;37.00;26.20;;;;;;;8.85;100.00;101426.10;105281;1257;101370;-76
2023/04/09 06:05:25;;;;;;;42.00;28.10;;;;;;;8.90;100.00;101426.15;105217;1258;99129;-77
2023/04/09 06:08:11;;;;;;;39.60;25.50;;;;;;;8.94;100.00;101430.30;105376;1258;98596;-78
2023/04/09 06:10:57;;;;;;;41.40;26.30;;;;;;;8.99;100.00;101435.31;105284;1256;97964;-78
2023/04/09 06:13:43;;;;;;;45.30;27.60;;;;;;;9.01;100.00;101432.29;105291;1257;97952;-78
2023/04/09 06:16:28;;;;;;;49.80;28.70;;;;;;;9.04;100.00;101433.91;105463;1261;102590;-77
2023/04/09 06:19:17;;;;;;;45.10;28.00;;;;;;;9.08;100.00;101430.63;105555;1261;100274;-78
2023/04/09 06:22:03;;;;;;;42.50;27.50;;;;;;;9.11;100.00;101430.82;105141;1260;97884;-79
2023/04/09 06:24:48;;;;;;;41.40;25.80;;;;;;;9.14;100.00;101431.74;105286;1256;98016;-76
2023/04/09 06:27:34;;;;;;;42.90;27.20;;;;;;;9.18;100.00;101430.51;105403;1255;99664;-77
2023/04/09 06:30:20;;;;;;;36.00;24.10;;;;;;;9.21;100.00;101430.63;105900;1256;101279;-78
2023/04/09 06:33:05;;;;;;;40.20;25.80;;;;;;;9.23;100.00;101430.93;105389;1261;99526;-77
2023/04/09 06:35:51;;;;;;;37.80;25.20;;;;;;;9.25;100.00;101437.42;105380;1258;97970;-77
2023/04/09 06:38:37;;;;;;;33.80;24.10;;;;;;;9.29;100.00;101440.73;105327;1255;98064;-76
2023/04/09 06:41:22;;;;;;;40.00;24.80;;;;;;;9.33;100.00;101440.11;105827;1258;98471;-82
2023/04/09 06:44:08;;;;;;;38.40;26.20;;;;;;;9.38;100.00;101440.38;106068;1255;102572;-77
2023/04/09 06:46:54;;;;;;;36.70;24.80;;;;;;;9.42;100.00;101441.60;106298;1258;99824;-78
2023/04/09 06:49:39;;;;;;;37.90;25.20;;;;;;;9.43;100.00;101439.88;105475;1256;97861;-78
2023/04/09 06:52:25;;;;;;;36.20;24.80;;;;;;;9.47;100.00;101441.23;106168;1255;98053;-81
2023/04/09 06:55:11;;;;;;;36.90;24.90;;;;;;;9.50;100.00;101443.42;106410;1260;98414;-79
2023/04/09 06:57:56;;;;;;;39.00;26.00;;;;;;;9.53;100.00;101451.23;105651;1254;101379;-77
2023/04/09 07:00:42;;;;;;;94.50;76.20;;;;;;;9.58;100.00;101455.77;105643;1258;107844;-79
2023/04/09 07:03:28;;;;;;;65.90;50.50;;;;;;;9.62;100.00;101455.88;105755;1260;98273;-82
2023/04/09 07:06:13;;;;;;;41.90;28.90;;;;;;;9.66;100.00;101455.39;106144;1256;97987;-84
2023/04/09 07:09:00;;;;;;;37.90;24.80;;;;;;;9.69;100.00;101452.64;106058;1260;97989;-77
2023/04/09 07:11:45;;;;;;;36.10;25.00;;;;;;;9.70;100.00;101455.92;105540;1259;102650;-77
2023/04/09 07:14:30;;;;;;;37.70;25.60;;;;;;;9.70;100.00;101452.66;105183;1261;100101;-76
2023/04/09 07:17:16;;;;;;;37.90;25.70;;;;;;;9.72;100.00;101453.05;105670;1256;98715;-79
2023/04/09 07:20:02;;;;;;;34.70;25.30;;;;;;;9.75;100.00;101453.38;105591;1258;99260;-79
2023/04/09 07:22:49;;;;;;;36.60;23.50;;;;;;;9.80;100.00;101457.14;106192;1256;97776;-83
2023/04/09 07:25:34;;;;;;;36.00;23.30;;;;;;;9.83;100.00;101458.55;106302;1256;101320;-79
2023/04/09 07:28:19;;;;;;;36.30;24.00;;;;;;;9.87;100.00;101459.02;105706;1256;99116;-84
2023/04/09 07:31:05;;;;;;;35.90;23.60;;;;;;;9.94;100.00;101466.86;106447;1260;107121;-79
2023/04/09 07:33:50;;;;;;;34.30;23.00;;;;;;;9.99;100.00;101466.55;105749;1261;97933;-80
2023/04/09 07:36:36;;;;;;;35.70;24.90;;;;;;;10.02;100.00;101473.83;105764;1263;98484;-79
2023/04/09 07:39:22;;;;;;;48.00;34.90;;;;;;;10.09;100.00;101475.30;105793;1255;101330;-79
2023/04/09 07:42:08;;;;;;;32.60;23.20;;;;;;;10.12;100.00;101473.79;105721;1256;100379;-81
2023/04/09 07:44:55;;;;;;;34.80;23.70;;;;;;;10.12;100.00;101479.54;105999;1258;98448;-77
2023/04/09 07:47:41;;;;;;;34.80;23.90;;;;;;;10.12;100.00;101480.54;105405;1259;98556;-85
2023/04/09 07:50:27;;;;;;;31.20;21.00;;;;;;;10.12;100.00;101477.48;106169;1256;97819;-82
2023/04/09 07:53:14;;;;;;;34.70;23.10;;;;;;;10.13;100.00;101477.06;106447;1261;102492;-80
2023/04/09 07:56:00;;;;;;;35.60;23.40;;;;;;;10.14;100.00;101478.55;106576;1261;100987;-83
2023/04/09 07:58:47;;;;;;;34.70;23.20;;;;;;;10.18;100.00;101477.25;106092;1256;97878;-80
2023/04/09 08:01:33;;;;;;;36.10;24.10;;;;;;;10.18;100.00;101481.46;105672;1261;97961;-78
2023/04/09 08:04:19;;;;;;;33.50;23.20;;;;;;;10.20;100.00;101476.48;105649;1259;97851;-81
2023/04/09 08:07:05;;;;;;;37.20;23.80;;;;;;;10.23;100.00;101479.17;106399;1258;101358;-79
2023/04/09 08:09:50;;;;;;;34.80;24.00;;;;;;;10.26;100.00;101478.48;105881;1260;100351;-82
2023/04/09 08:12:35;;;;;;;36.40;23.10;;;;;;;10.32;100.00;101479.77;106454;1256;99119;-80
2023/04/09 08:15:21;;;;;;;30.80;21.40;;;;;;;10.38;100.00;101478.36;105870;1256;97959;-79
2023/04/09 08:18:07;;;;;;;38.00;25.50;;;;;;;10.43;100.00;101476.07;105877;1255;98496;-82
2023/04/09 08:20:52;;;;;;;32.80;22.90;;;;;;;10.51;100.00;101475.89;106403;1259;101374;-83
2023/04/09 08:23:38;;;;;;;33.60;23.70;;;;;;;10.59;100.00;101477.74;106125;1258;100364;-80
2023/04/09 08:26:23;;;;;;;30.50;22.00;;;;;;;10.61;100.00;101480.89;105724;1256;97894;-78
2023/04/09 08:29:11;;;;;;;32.20;24.10;;;;;;;10.64;100.00;101481.27;105650;1269;98065;-78
2023/04/09 08:31:57;;;;;;;31.00;21.20;;;;;;;10.68;100.00;101482.41;106310;1258;98481;-82
2023/04/09 08:34:43;;;;;;;30.20;21.20;;;;;;;10.73;100.00;101480.27;106298;1255;102605;-81
2023/04/09 08:37:28;;;;;;;31.90;22.60;;;;;;;10.80;100.00;101479.54;106251;1259;100346;-82
2023/04/09 08:40:15;;;;;;;31.20;21.20;;;;;;;10.88;100.00;101478.30;106280;1253;99401;-81
2023/04/09 08:43:04;;;;;;;31.40;21.60;;;;;;;10.93;99.70;101476.16;106177;1261;97968;-81
2023/04/09 08:45:49;;;;;;;32.30;22.00;;;;;;;10.99;99.95;101473.31;106447;1260;98080;-79
2023/04/09 08:48:35;;;;;;;32.10;21.50;;;;;;;11.09;100.00;101473.43;105713;1254;101351;-80
2023/04/09 08:51:23;;;;;;;31.20;20.90;;;;;;;11.17;99.67;101476.85;105835;1258;99396;-82
2023/04/09 08:54:08;;;;;;;29.80;21.00;;;;;;;11.26;99.82;101475.73;106124;1260;98044;-82
2023/04/09 08:56:56;;;;;;;29.40;20.50;;;;;;;11.35;99.58;101474.17;106344;1255;97921;-80
2023/04/09 08:59:41;;;;;;;26.70;18.50;;;;;;;11.44;99.67;101470.47;105862;1256;97863;-81
2023/04/09 09:02:27;;;;;;;23.50;17.20;;;;;;;11.50;98.90;101467.16;106129;1260;102589;-82
2023/04/09 09:05:12;;;;;;;25.60;17.10;;;;;;;11.55;98.42;101464.91;106253;1258;99090;-81
2023/04/09 09:07:58;;;;;;;27.90;17.80;;;;;;;11.60;98.02;101468.17;106336;1255;98344;-83
2023/04/09 09:10:45;;;;;;;25.30;18.00;;;;;;;11.68;97.73;101469.12;106293;1258;97975;-81
2023/04/09 09:13:30;;;;;;;26.00;18.00;;;;;;;11.76;97.86;101469.17;106184;1258;97958;-82
2023/04/09 09:16:15;;;;;;;26.00;18.10;;;;;;;11.82;97.22;101472.80;106345;1260;101342;-82
2023/04/09 09:19:01;;;;;;;27.20;20.30;;;;;;;11.85;97.09;101474.06;106400;1259;99068;-82
2023/04/09 09:22:02;;;;;;;27.60;19.20;;;;;;;11.92;97.57;101474.98;106231;1255;97999;-81
2023/04/09 09:24:51;;;;;;;23.30;17.20;;;;;;;12.00;96.80;101474.64;106135;1254;97947;-82
2023/04/09 09:27:39;;;;;;;29.90;21.00;;;;;;;12.07;97.03;101476.48;106392;1260;98166;-83
2023/04/09 09:30:26;;;;;;;25.80;18.70;;;;;;;12.16;97.25;101474.66;106668;1254;101329;-83
2023/04/09 09:33:11;;;;;;;25.10;18.50;;;;;;;12.23;96.24;101475.53;106284;1260;99230;-82
2023/04/09 09:35:56;;;;;;;22.70;16.80;;;;;;;12.26;95.92;101478.41;106282;1260;97977;-82
2023/04/09 09:38:54;;;;;;;23.60;16.40;;;;;;;12.29;95.21;101479.27;106491;1260;97836;-82
2023/04/09 09:41:40;;;;;;;21.80;16.30;;;;;;;12.30;94.98;101482.92;106215;1254;97875;-81
2023/04/09 09:44:31;;;;;;;22.90;17.30;;;;;;;12.32;95.42;101485.70;106262;1260;102045;-79
2023/04/09 09:47:21;;;;;;;24.30;17.80;;;;;;;12.35;95.21;101487.27;105554;1258;99788;-82
2023/04/09 09:50:07;;;;;;;25.70;18.10;;;;;;;12.37;95.25;101489.22;106162;1258;97960;-81
2023/04/09 09:53:00;;;;;;;26.40;18.20;;;;;;;12.40;95.27;101490.69;106325;1260;98509;-82
2023/04/09 09:55:51;;;;;;;25.90;18.30;;;;;;;12.42;95.27;101488.73;106356;1259;97949;-82
2023/04/09 09:59:00;;;;;;;26.20;18.30;;;;;;;12.43;95.18;101489.49;106418;1260;101482;-80
2023/04/09 10:01:56;;;;;;;27.20;19.20;;;;;;;12.44;95.20;101491.57;106193;1260;99210;-79
2023/04/09 10:04:42;;;;;;;27.00;18.50;;;;;;;12.45;94.84;101494.16;106304;1258;99057;-79
2023/04/09 10:07:29;;;;;;;26.60;18.80;;;;;;;12.46;94.78;101494.19;105950;1254;98299;-80
2023/04/09 10:10:15;;;;;;;25.70;19.40;;;;;;;12.46;94.80;101491.09;105815;1262;97989;-79
2023/04/09 10:13:01;;;;;;;28.10;19.70;;;;;;;12.47;95.02;101493.30;105762;1254;101295;-80
2023/04/09 10:15:47;;;;;;;25.50;18.60;;;;;;;12.49;94.67;101490.02;106494;1259;100852;-80
2023/04/09 10:18:34;;;;;;;27.10;18.90;;;;;;;12.50;94.87;101485.25;105787;1259;98989;-81
2023/04/09 10:21:22;;;;;;;26.40;18.30;;;;;;;12.51;94.20;101484.44;105717;1257;98108;-81
2023/04/09 10:24:09;;;;;;;26.50;18.50;;;;;;;12.52;94.45;101486.41;106154;1258;97798;-80
2023/04/09 10:27:07;;;;;;;25.60;18.80;;;;;;;12.53;94.08;101485.83;105816;1260;101364;-79
2023/04/09 10:29:53;;;;;;;23.90;17.60;;;;;;;12.53;94.00;101489.06;105872;1260;99087;-79
2023/04/09 10:32:39;;;;;;;24.30;17.70;;;;;;;12.55;94.07;101487.95;105754;1267;108124;-79
2023/04/09 10:35:25;;;;;;;25.10;17.50;;;;;;;12.56;93.87;101488.30;105927;1260;97758;-81
2023/04/09 10:38:13;;;;;;;24.90;16.90;;;;;;;12.58;93.10;101486.64;106487;1259;97863;-82
2023/04/09 10:41:06;;;;;;;24.10;17.70;;;;;;;12.58;92.87;101488.21;106392;1259;101905;-82
2023/04/09 10:43:51;;;;;;;22.30;17.00;;;;;;;12.61;93.47;101489.30;106327;1260;99143;-81
2023/04/09 10:46:40;;;;;;;26.10;19.30;;;;;;;12.66;93.36;101487.08;106422;1262;98952;-81
2023/04/09 10:49:26;;;;;;;23.40;16.90;;;;;;;12.73;92.97;101482.70;106528;1261;98049;-80
2023/04/09 10:52:14;;;;;;;23.60;16.50;;;;;;;12.80;93.21;101479.00;106366;1260;97900;-81
2023/04/09 10:55:00;;;;;;;42.90;25.50;;;;;;;12.89;93.35;101475.27;106342;1260;101363;-80
2023/04/09 10:57:45;;;;;;;52.40;30.10;;;;;;;12.99;93.49;101475.11;106324;1258;107748;-80
2023/04/09 11:00:35;;;;;;;26.10;18.40;;;;;;;13.08;92.90;101473.30;106209;1254;98815;-81
2023/04/09 11:03:27;;;;;;;23.30;16.00;;;;;;;13.14;91.87;101473.52;106365;1256;97994;-81
2023/04/09 11:06:18;;;;;;;20.60;15.00;;;;;;;13.13;90.77;101468.63;106431;1259;97963;-81
2023/04/09 11:09:04;;;;;;;19.40;14.60;;;;;;;13.16;90.57;101470.73;106603;1259;102594;-81
2023/04/09 11:11:52;;;;;;;20.80;14.60;;;;;;;13.20;90.04;101465.30;106373;1258;100110;-80
2023/04/09 11:14:37;;;;;;;19.00;14.10;;;;;;;13.26;91.05;101462.78;106353;1260;97958;-81
2023/04/09 11:17:23;;;;;;;19.00;15.60;;;;;;;13.37;91.74;101460.89;106483;1254;97954;-80
2023/04/09 11:20:09;;;;;;;22.40;16.70;;;;;;;13.54;92.24;101459.32;106318;1259;97541;-80
2023/04/09 11:22:55;;;;;;;17.90;14.10;;;;;;;13.77;92.52;101461.31;106381;1258;102599;-80
2023/04/09 11:25:40;;;;;;;19.80;14.90;;;;;;;14.00;91.61;101464.10;106565;1257;100325;-81
2023/04/09 11:28:26;;;;;;;28.00;18.50;;;;;;;14.18;91.17;101460.02;106371;1260;99255;-81
2023/04/09 11:31:11;;;;;;;22.20;14.60;;;;;;;14.33;90.80;101458.52;106339;1254;97964;-81
2023/04/09 11:33:57;;;;;;;16.50;12.30;;;;;;;14.48;89.34;101459.48;106406;1260;97953;-80
2023/04/09 11:36:48;;;;;;;17.00;13.80;;;;;;;14.63;87.92;101463.11;106414;1260;102614;-80
2023/04/09 11:39:36;;;;;;;;;;;;;;;14.76;86.71;101466.82;105825;1260;100714;-81
2023/04/09 11:42:24;;;;;;;18.00;14.50;;;;;;;14.82;87.48;101463.46;106300;1261;99396;-80
2023/04/09 11:45:11;;;;;;;20.10;14.60;;;;;;;14.91;87.36;101461.27;106300;1258;98755;-80
2023/04/09 11:47:57;;;;;;;17.80;15.60;;;;;;;14.89;86.10;101463.25;106265;1261;98391;-80
2023/04/09 11:50:42;;;;;;;18.90;13.80;;;;;;;14.86;85.77;101463.80;106238;1260;101356;-79
2023/04/09 11:53:29;;;;;;;17.10;12.30;;;;;;;14.85;85.54;101466.11;105794;1258;100318;-80
2023/04/09 11:56:15;;;;;;;15.70;11.20;;;;;;;14.83;84.62;101464.79;105859;1269;98356;-79
2023/04/09 11:59:02;;;;;;;12.00;10.40;;;;;;;14.76;83.59;101462.99;105693;1260;97968;-80
2023/04/09 12:01:51;;;;;;;13.80;10.90;;;;;;;14.66;82.79;101458.86;105778;1259;98495;-78
2023/04/09 12:04:36;;;;;;;13.00;10.20;;;;;;;14.56;82.41;101457.45;105785;1257;101417;-80
2023/04/09 12:07:21;;;;;;;13.60;10.00;;;;;;;14.49;82.31;101459.86;106279;1254;99061;-80
2023/04/09 12:10:09;;;;;;;13.20;9.40;;;;;;;14.43;81.73;101459.38;106268;1255;98267;-81
2023/04/09 12:13:00;;;;;;;12.30;9.70;;;;;;;14.34;80.65;101455.17;106126;1257;97937;-81
2023/04/09 12:15:48;;;;;;;11.00;9.90;;;;;;;14.28;80.40;101449.28;106312;1257;97986;-80
2023/04/09 12:18:37;;;;;;;13.50;9.90;;;;;;;14.28;80.61;101449.48;106197;1256;102061;-79
2023/04/09 12:21:26;;;;;;;15.10;10.30;;;;;;;14.28;79.78;101448.20;106226;1254;99085;-80
2023/04/09 12:24:12;;;;;;;13.20;9.70;;;;;;;14.35;80.30;101444.15;106385;1260;98088;-79
2023/04/09 12:26:57;;;;;;;12.40;10.00;;;;;;;14.41;79.94;101438.98;106210;1254;97966;-80
2023/04/09 12:29:42;;;;;;;12.00;9.50;;;;;;;14.48;80.37;101439.52;106439;1258;98490;-81
2023/04/09 12:32:28;;;;;;;13.20;10.00;;;;;;;14.55;79.60;101439.80;106296;1260;101340;-80